sensor_id;sensor_type;location;lat;lon;timestamp;pressure;altitude;pressure_sealevel;temperature;humidity
19576;BME280;41589;51.196;7.074;2022-07-23T00:00:52;99208.72;;;16.70;92.81
19576;BME280;41589;51.196;7.074;2022-07-23T00:05:52;99216.38;;;16.64;95.25
19576;BME280;41589;51.196;7.074;2022-07-23T00:10:53;99216.00;;;16.51;95.18
19576;BME280;41589;51.196;7.074;2022-07-23T00:15:54;99207.28;;;16.34;97.20
19576;BME280;41589;51.196;7.074;2022-07-23T00:20:55;99220.75;;;16.59;97.22
19576;BME280;41589;51.196;7.074;2022-07-23T00:25:55;99201.66;;;16.91;97.41
19576;BME280;41589;51.196;7.074;2022-07-23T00:30:56;99202.13;;;16.84;96.95
19576;BME280;41589;51.196;7.074;2022-07-23T00:35:56;99210.81;;;16.49;95.94
19576;BME280;41589;51.196;7.074;2022-07-23T00:40:57;99206.88;;;16.41;97.09
19576;BME280;41589;51.196;7.074;2022-07-23T00:45:58;99200.00;;;16.27;96.74
19576;BME280;41589;51.196;7.074;2022-07-23T00:50:58;99197.72;;;16.31;97.08
19576;BME280;41589;51.196;7.074;2022-07-23T00:55:59;99187.34;;;16.54;98.90
19576;BME280;41589;51.196;7.074;2022-07-23T01:01:00;99194.25;;;16.68;97.91
19576;BME280;41589;51.196;7.074;2022-07-23T01:06:00;99192.19;;;16.68;98.08
19576;BME280;41589;51.196;7.074;2022-07-23T01:11:01;99189.84;;;16.67;98.08
19576;BME280;41589;51.196;7.074;2022-07-23T01:16:01;99186.06;;;16.81;99.16
19576;BME280;41589;51.196;7.074;2022-07-23T01:21:02;99192.06;;;16.57;97.66
19576;BME280;41589;51.196;7.074;2022-07-23T01:26:02;99184.94;;;16.67;98.93
19576;BME280;41589;51.196;7.074;2022-07-23T01:31:03;99190.44;;;16.77;98.81
19576;BME280;41589;51.196;7.074;2022-07-23T01:36:08;99206.03;;;16.87;98.70
19576;BME280;41589;51.196;7.074;2022-07-23T01:41:09;99198.81;;;16.91;99.25
19576;BME280;41589;51.196;7.074;2022-07-23T01:46:09;99195.34;;;16.76;97.81
19576;BME280;41589;51.196;7.074;2022-07-23T01:51:15;99188.09;;;16.75;99.20
19576;BME280;41589;51.196;7.074;2022-07-23T01:56:17;99176.91;;;16.40;97.69
19576;BME280;41589;51.196;7.074;2022-07-23T02:01:20;99174.25;;;16.62;98.28
19576;BME280;41589;51.196;7.074;2022-07-23T02:06:21;99165.03;;;16.67;97.99
19576;BME280;41589;51.196;7.074;2022-07-23T02:11:21;99164.09;;;16.76;98.72
19576;BME280;41589;51.196;7.074;2022-07-23T02:16:22;99176.84;;;16.86;98.99
19576;BME280;41589;51.196;7.074;2022-07-23T02:21:22;99178.66;;;16.89;99.37
19576;BME280;41589;51.196;7.074;2022-07-23T02:26:23;99182.22;;;16.84;99.10
19576;BME280;41589;51.196;7.074;2022-07-23T02:31:25;99174.28;;;16.94;99.42
19576;BME280;41589;51.196;7.074;2022-07-23T02:36:26;99171.81;;;16.75;98.64
19576;BME280;41589;51.196;7.074;2022-07-23T02:41:27;99165.00;;;16.36;97.74
19576;BME280;41589;51.196;7.074;2022-07-23T02:46:28;99164.41;;;16.32;98.19
19576;BME280;41589;51.196;7.074;2022-07-23T02:51:29;99171.72;;;16.38;99.67
19576;BME280;41589;51.196;7.074;2022-07-23T02:56:35;99170.69;;;16.36;99.65
19576;BME280;41589;51.196;7.074;2022-07-23T03:01:35;99179.28;;;16.73;99.95
19576;BME280;41589;51.196;7.074;2022-07-23T07:36:03;99318.91;;;20.12;80.82
19576;BME280;41589;51.196;7.074;2022-07-23T07:41:04;99320.44;;;20.13;81.24
19576;BME280;41589;51.196;7.074;2022-07-23T07:46:04;99318.38;;;20.08;80.65
19576;BME280;41589;51.196;7.074;2022-07-23T07:51:05;99323.75;;;20.28;82.14
19576;BME280;41589;51.196;7.074;2022-07-23T07:56:05;99336.69;;;20.52;81.84
19576;BME280;41589;51.196;7.074;2022-07-23T08:01:06;99336.63;;;20.63;80.23
19576;BME280;41589;51.196;7.074;2022-07-23T08:06:06;99345.38;;;20.76;80.58
19576;BME280;41589;51.196;7.074;2022-07-23T08:11:07;99342.47;;;20.87;78.09
19576;BME280;41589;51.196;7.074;2022-07-23T08:16:07;99346.72;;;21.16;77.91
19576;BME280;41589;51.196;7.074;2022-07-23T08:21:08;99351.09;;;21.53;79.24
19576;BME280;41589;51.196;7.074;2022-07-23T08:26:08;99344.44;;;21.75;77.71
19576;BME280;41589;51.196;7.074;2022-07-23T08:31:09;99358.19;;;21.82;77.47
19576;BME280;41589;51.196;7.074;2022-07-23T08:36:11;99352.50;;;21.76;76.26
19576;BME280;41589;51.196;7.074;2022-07-23T08:41:11;99356.16;;;21.77;76.06
19576;BME280;41589;51.196;7.074;2022-07-23T08:46:13;99364.56;;;21.94;75.42
19576;BME280;41589;51.196;7.074;2022-07-23T08:51:13;99368.88;;;22.06;74.04
19576;BME280;41589;51.196;7.074;2022-07-23T08:56:14;99367.56;;;22.56;75.18
19576;BME280;41589;51.196;7.074;2022-07-23T09:01:14;99371.78;;;22.73;72.59
19576;BME280;41589;51.196;7.074;2022-07-23T09:24:39;99384.25;;;22.95;68.85
19576;BME280;41589;51.196;7.074;2022-07-23T09:30:45;99376.44;;;22.95;69.45
19576;BME280;41589;51.196;7.074;2022-07-23T09:36:22;99383.81;;;23.28;70.58
19576;BME280;41589;51.196;7.074;2022-07-23T09:42:28;99375.59;;;23.70;69.65
19576;BME280;41589;51.196;7.074;2022-07-23T09:47:48;99384.69;;;23.74;63.28
19576;BME280;41589;51.196;7.074;2022-07-23T09:53:43;99396.66;;;24.05;67.85
19576;BME280;41589;51.196;7.074;2022-07-23T09:59:03;99386.88;;;24.40;66.05
19576;BME280;41589;51.196;7.074;2022-07-23T10:04:37;99388.22;;;24.52;61.88
19576;BME280;41589;51.196;7.074;2022-07-23T10:09:59;99384.50;;;24.25;60.99
19576;BME280;41589;51.196;7.074;2022-07-23T10:15:19;99392.75;;;24.61;62.17
19576;BME280;41589;51.196;7.074;2022-07-23T10:26:29;99381.63;;;24.91;60.43
19576;BME280;41589;51.196;7.074;2022-07-23T10:32:02;99371.19;;;25.01;62.06
19576;BME280;41589;51.196;7.074;2022-07-23T10:42:40;99363.28;;;24.81;58.48
19576;BME280;41589;51.196;7.074;2022-07-23T10:48:27;99367.72;;;24.56;60.10
19576;BME280;41589;51.196;7.074;2022-07-23T10:59:14;99363.41;;;24.62;59.08
19576;BME280;41589;51.196;7.074;2022-07-23T11:04:50;99365.34;;;24.94;66.19
19576;BME280;41589;51.196;7.074;2022-07-23T11:10:00;99363.69;;;24.85;57.46
19576;BME280;41589;51.196;7.074;2022-07-23T11:15:16;99370.38;;;24.80;60.00
19576;BME280;41589;51.196;7.074;2022-07-23T11:20:23;99374.66;;;24.87;56.65
19576;BME280;41589;51.196;7.074;2022-07-23T11:25:34;99363.38;;;24.75;58.45
19576;BME280;41589;51.196;7.074;2022-07-23T11:30:39;99367.13;;;24.84;57.70
19576;BME280;41589;51.196;7.074;2022-07-23T11:36:01;99364.44;;;24.99;60.53
19576;BME280;41589;51.196;7.074;2022-07-23T11:41:08;99364.16;;;24.89;56.78
19576;BME280;41589;51.196;7.074;2022-07-23T11:46:16;99363.41;;;24.62;55.79
19576;BME280;41589;51.196;7.074;2022-07-23T11:51:27;99371.06;;;24.60;58.70
19576;BME280;41589;51.196;7.074;2022-07-23T11:56:30;99360.75;;;24.64;58.07
19576;BME280;41589;51.196;7.074;2022-07-23T12:01:31;99358.53;;;24.70;56.10
19576;BME280;41589;51.196;7.074;2022-07-23T12:06:38;99365.28;;;24.73;59.05
19576;BME280;41589;51.196;7.074;2022-07-23T12:11:38;99357.41;;;24.73;57.05
19576;BME280;41589;51.196;7.074;2022-07-23T12:16:39;99352.25;;;24.59;56.24
19576;BME280;41589;51.196;7.074;2022-07-23T12:21:44;99360.19;;;24.66;57.43
19576;BME280;41589;51.196;7.074;2022-07-23T12:27:10;99361.41;;;24.57;58.46
19576;BME280;41589;51.196;7.074;2022-07-23T12:32:23;99361.97;;;24.69;57.96
19576;BME280;41589;51.196;7.074;2022-07-23T12:42:41;99361.94;;;24.82;56.89
19576;BME280;41589;51.196;7.074;2022-07-23T12:47:59;99359.94;;;24.90;56.28
19576;BME280;41589;51.196;7.074;2022-07-23T12:53:04;99363.03;;;24.92;56.03
19576;BME280;41589;51.196;7.074;2022-07-23T12:58:14;99371.78;;;24.87;56.66
19576;BME280;41589;51.196;7.074;2022-07-23T13:03:36;99384.75;;;24.67;57.28
19576;BME280;41589;51.196;7.074;2022-07-23T13:08:38;99370.50;;;24.61;55.96
19576;BME280;41589;51.196;7.074;2022-07-23T13:13:41;99381.00;;;24.72;56.56
19576;BME280;41589;51.196;7.074;2022-07-23T13:18:41;99382.56;;;24.60;54.93
19576;BME280;41589;51.196;7.074;2022-07-23T13:23:42;99374.34;;;24.77;55.08
19576;BME280;41589;51.196;7.074;2022-07-23T13:28:42;99384.44;;;24.70;55.15
19576;BME280;41589;51.196;7.074;2022-07-23T13:33:43;99377.88;;;24.83;55.16
19576;BME280;41589;51.196;7.074;2022-07-23T13:38:43;99377.09;;;24.83;53.85
19576;BME280;41589;51.196;7.074;2022-07-23T13:43:44;99373.06;;;24.99;52.00
19576;BME280;41589;51.196;7.074;2022-07-23T13:48:44;99376.47;;;25.24;50.87
19576;BME280;41589;51.196;7.074;2022-07-23T13:53:45;99360.66;;;25.38;51.49
19576;BME280;41589;51.196;7.074;2022-07-23T13:58:46;99354.03;;;25.64;50.93
19576;BME280;41589;51.196;7.074;2022-07-23T14:03:46;99349.34;;;25.61;50.78
19576;BME280;41589;51.196;7.074;2022-07-23T14:08:47;99350.03;;;25.67;50.04
19576;BME280;41589;51.196;7.074;2022-07-23T14:13:47;99346.94;;;25.65;49.28
19576;BME280;41589;51.196;7.074;2022-07-23T14:18:47;99348.31;;;25.72;50.68
19576;BME280;41589;51.196;7.074;2022-07-23T14:23:48;99351.78;;;25.70;49.71
19576;BME280;41589;51.196;7.074;2022-07-23T14:28:49;99357.97;;;25.74;49.27
19576;BME280;41589;51.196;7.074;2022-07-23T14:33:50;99356.97;;;25.72;50.50
19576;BME280;41589;51.196;7.074;2022-07-23T14:38:51;99358.09;;;25.69;49.51
19576;BME280;41589;51.196;7.074;2022-07-23T14:43:51;99350.72;;;25.81;50.43
19576;BME280;41589;51.196;7.074;2022-07-23T14:48:52;99348.44;;;26.08;51.30
19576;BME280;41589;51.196;7.074;2022-07-23T14:53:52;99347.03;;;26.01;49.74
19576;BME280;41589;51.196;7.074;2022-07-23T14:58:53;99333.84;;;25.85;48.57
19576;BME280;41589;51.196;7.074;2022-07-23T15:03:56;99337.00;;;25.95;49.90
19576;BME280;41589;51.196;7.074;2022-07-23T15:08:56;99332.25;;;25.76;48.29
19576;BME280;41589;51.196;7.074;2022-07-23T15:14:18;99328.94;;;25.72;48.19
19576;BME280;41589;51.196;7.074;2022-07-23T15:19:24;99322.53;;;25.66;47.73
19576;BME280;41589;51.196;7.074;2022-07-23T15:24:27;99337.94;;;25.69;47.44
19576;BME280;41589;51.196;7.074;2022-07-23T15:29:34;99331.59;;;25.70;47.94
19576;BME280;41589;51.196;7.074;2022-07-23T15:34:37;99333.97;;;25.79;48.01
19576;BME280;41589;51.196;7.074;2022-07-23T15:40:00;99324.78;;;25.81;49.31
19576;BME280;41589;51.196;7.074;2022-07-23T15:45:11;99338.91;;;25.71;48.21
19576;BME280;41589;51.196;7.074;2022-07-23T15:50:13;99330.06;;;25.69;47.77
19576;BME280;41589;51.196;7.074;2022-07-23T15:55:14;99334.28;;;25.68;47.45
19576;BME280;41589;51.196;7.074;2022-07-23T16:00:17;99341.47;;;25.61;47.85
19576;BME280;41589;51.196;7.074;2022-07-23T16:05:26;99335.50;;;25.59;47.28
19576;BME280;41589;51.196;7.074;2022-07-23T16:10:41;99341.59;;;25.69;48.86
19576;BME280;41589;51.196;7.074;2022-07-23T16:15:42;99325.69;;;25.76;47.38
19576;BME280;41589;51.196;7.074;2022-07-23T16:20:43;99320.91;;;25.78;48.03
19576;BME280;41589;51.196;7.074;2022-07-23T16:25:46;99317.19;;;25.70;48.35
19576;BME280;41589;51.196;7.074;2022-07-23T16:30:47;99321.47;;;25.56;47.42
19576;BME280;41589;51.196;7.074;2022-07-23T16:35:51;99327.44;;;25.58;47.60
19576;BME280;41589;51.196;7.074;2022-07-23T16:40:54;99320.13;;;25.57;48.49
19576;BME280;41589;51.196;7.074;2022-07-23T16:45:56;99323.16;;;25.51;47.52
19576;BME280;41589;51.196;7.074;2022-07-23T16:50:57;99321.41;;;25.48;47.73
19576;BME280;41589;51.196;7.074;2022-07-23T16:55:58;99324.00;;;25.39;46.65
19576;BME280;41589;51.196;7.074;2022-07-23T17:00:59;99319.34;;;25.36;47.48
19576;BME280;41589;51.196;7.074;2022-07-23T17:05:59;99322.16;;;25.28;47.76
19576;BME280;41589;51.196;7.074;2022-07-23T17:11:00;99327.91;;;25.28;47.92
19576;BME280;41589;51.196;7.074;2022-07-23T17:16:01;99324.63;;;25.24;48.92
19576;BME280;41589;51.196;7.074;2022-07-23T17:21:05;99325.75;;;25.21;48.45
19576;BME280;41589;51.196;7.074;2022-07-23T17:26:05;99329.94;;;25.20;48.64
19576;BME280;41589;51.196;7.074;2022-07-23T17:31:06;99331.06;;;25.17;47.51
19576;BME280;41589;51.196;7.074;2022-07-23T17:36:07;99328.00;;;25.01;47.59
19576;BME280;41589;51.196;7.074;2022-07-23T17:41:07;99318.06;;;25.02;48.65
19576;BME280;41589;51.196;7.074;2022-07-23T17:46:08;99324.25;;;24.93;47.92
19576;BME280;41589;51.196;7.074;2022-07-23T17:51:08;99320.06;;;24.94;49.54
19576;BME280;41589;51.196;7.074;2022-07-23T17:56:09;99314.84;;;24.93;48.83
19576;BME280;41589;51.196;7.074;2022-07-23T18:01:10;99314.97;;;24.87;48.34
19576;BME280;41589;51.196;7.074;2022-07-23T18:06:12;99318.09;;;24.89;48.69
19576;BME280;41589;51.196;7.074;2022-07-23T18:11:13;99335.09;;;25.00;48.78
19576;BME280;41589;51.196;7.074;2022-07-23T18:16:13;99326.94;;;24.91;49.04
19576;BME280;41589;51.196;7.074;2022-07-23T18:21:14;99331.47;;;24.87;49.44
19576;BME280;41589;51.196;7.074;2022-07-23T18:26:15;99337.59;;;24.83;49.53
19576;BME280;41589;51.196;7.074;2022-07-23T18:31:15;99334.13;;;24.85;49.13
19576;BME280;41589;51.196;7.074;2022-07-23T18:36:16;99341.34;;;24.78;49.82
19576;BME280;41589;51.196;7.074;2022-07-23T18:41:16;99339.72;;;24.69;50.49
19576;BME280;41589;51.196;7.074;2022-07-23T18:46:17;99346.91;;;24.63;50.17
19576;BME280;41589;51.196;7.074;2022-07-23T18:51:17;99352.13;;;24.51;50.83
19576;BME280;41589;51.196;7.074;2022-07-23T18:56:19;99347.94;;;24.39;51.29
19576;BME280;41589;51.196;7.074;2022-07-23T19:01:19;99353.66;;;24.26;51.19
19576;BME280;41589;51.196;7.074;2022-07-23T19:06:20;99344.25;;;24.12;51.44
19576;BME280;41589;51.196;7.074;2022-07-23T19:11:20;99358.63;;;23.99;50.80
19576;BME280;41589;51.196;7.074;2022-07-23T19:16:20;99368.88;;;23.94;51.43
19576;BME280;41589;51.196;7.074;2022-07-23T19:21:21;99364.03;;;23.89;51.17
19576;BME280;41589;51.196;7.074;2022-07-23T19:26:21;99358.91;;;23.82;51.95
19576;BME280;41589;51.196;7.074;2022-07-23T19:31:22;99366.72;;;23.68;51.50
19576;BME280;41589;51.196;7.074;2022-07-23T19:36:22;99364.81;;;23.57;51.50
19576;BME280;41589;51.196;7.074;2022-07-23T19:41:23;99370.88;;;23.54;51.18
19576;BME280;41589;51.196;7.074;2022-07-23T19:46:23;99367.63;;;23.44;51.50
19576;BME280;41589;51.196;7.074;2022-07-23T19:51:24;99381.44;;;23.46;51.93
19576;BME280;41589;51.196;7.074;2022-07-23T19:56:24;99388.81;;;23.41;51.81
19576;BME280;41589;51.196;7.074;2022-07-23T20:01:25;99390.03;;;23.32;51.62
19576;BME280;41589;51.196;7.074;2022-07-23T20:06:25;99388.16;;;23.35;51.14
19576;BME280;41589;51.196;7.074;2022-07-23T20:11:26;99391.09;;;23.29;51.69
19576;BME280;41589;51.196;7.074;2022-07-23T20:16:26;99389.09;;;23.24;51.79
19576;BME280;41589;51.196;7.074;2022-07-23T20:21:27;99396.38;;;23.07;52.76
19576;BME280;41589;51.196;7.074;2022-07-23T20:26:30;99391.56;;;22.96;52.26
19576;BME280;41589;51.196;7.074;2022-07-23T20:31:31;99391.31;;;22.94;52.37
19576;BME280;41589;51.196;7.074;2022-07-23T20:36:32;99391.63;;;22.90;52.86
19576;BME280;41589;51.196;7.074;2022-07-23T20:41:34;99389.66;;;22.80;52.71
19576;BME280;41589;51.196;7.074;2022-07-23T20:46:35;99399.50;;;22.65;52.86
19576;BME280;41589;51.196;7.074;2022-07-23T20:51:35;99392.22;;;22.64;53.39
19576;BME280;41589;51.196;7.074;2022-07-23T20:56:36;99395.22;;;22.53;53.16
19576;BME280;41589;51.196;7.074;2022-07-23T21:01:36;99401.75;;;22.54;52.86
19576;BME280;41589;51.196;7.074;2022-07-23T21:06:37;99409.88;;;22.50;53.23
19576;BME280;41589;51.196;7.074;2022-07-23T21:11:37;99405.88;;;22.34;53.87
19576;BME280;41589;51.196;7.074;2022-07-23T21:16:38;99406.19;;;22.25;53.79
19576;BME280;41589;51.196;7.074;2022-07-23T21:21:38;99403.09;;;22.23;53.62
19576;BME280;41589;51.196;7.074;2022-07-23T21:26:39;99402.09;;;22.20;53.67
19576;BME280;41589;51.196;7.074;2022-07-23T21:31:39;99407.41;;;22.10;53.77
19576;BME280;41589;51.196;7.074;2022-07-23T21:36:40;99407.94;;;22.09;54.35
19576;BME280;41589;51.196;7.074;2022-07-23T21:41:41;99411.84;;;22.06;54.29
19576;BME280;41589;51.196;7.074;2022-07-23T21:46:41;99401.25;;;22.01;54.10
19576;BME280;41589;51.196;7.074;2022-07-23T21:51:42;99408.81;;;21.98;54.22
19576;BME280;41589;51.196;7.074;2022-07-23T21:56:44;99412.50;;;21.93;54.01
19576;BME280;41589;51.196;7.074;2022-07-23T22:01:45;99407.00;;;21.95;54.17
19576;BME280;41589;51.196;7.074;2022-07-23T22:06:45;99407.84;;;21.90;54.28
19576;BME280;41589;51.196;7.074;2022-07-23T22:11:46;99412.84;;;21.84;53.69
19576;BME280;41589;51.196;7.074;2022-07-23T22:16:46;99408.53;;;21.72;53.48
19576;BME280;41589;51.196;7.074;2022-07-23T22:21:47;99410.38;;;21.69;54.43
19576;BME280;41589;51.196;7.074;2022-07-23T22:26:47;99429.41;;;21.67;53.48
19576;BME280;41589;51.196;7.074;2022-07-23T22:31:48;99420.34;;;21.57;53.17
19576;BME280;41589;51.196;7.074;2022-07-23T22:36:48;99424.25;;;21.59;53.58
19576;BME280;41589;51.196;7.074;2022-07-23T22:41:48;99412.09;;;21.48;53.14
19576;BME280;41589;51.196;7.074;2022-07-23T22:46:49;99401.16;;;21.46;53.89
19576;BME280;41589;51.196;7.074;2022-07-23T22:51:49;99411.25;;;21.53;54.24
19576;BME280;41589;51.196;7.074;2022-07-23T22:56:50;99416.78;;;21.45;54.12
19576;BME280;41589;51.196;7.074;2022-07-23T23:01:50;99408.47;;;21.42;54.76
19576;BME280;41589;51.196;7.074;2022-07-23T23:06:50;99416.03;;;21.39;54.03
19576;BME280;41589;51.196;7.074;2022-07-23T23:11:51;99411.13;;;21.34;54.88
19576;BME280;41589;51.196;7.074;2022-07-23T23:16:52;99414.50;;;21.32;54.85
19576;BME280;41589;51.196;7.074;2022-07-23T23:21:52;99420.53;;;21.29;54.94
19576;BME280;41589;51.196;7.074;2022-07-23T23:26:53;99415.09;;;21.25;54.80
19576;BME280;41589;51.196;7.074;2022-07-23T23:31:53;99413.25;;;21.28;55.19
19576;BME280;41589;51.196;7.074;2022-07-23T23:36:54;99408.06;;;21.26;55.48
19576;BME280;41589;51.196;7.074;2022-07-23T23:41:54;99418.47;;;21.24;54.94
19576;BME280;41589;51.196;7.074;2022-07-23T23:46:55;99412.50;;;21.22;55.45
19576;BME280;41589;51.196;7.074;2022-07-23T23:51:55;99401.34;;;21.18;55.49
19576;BME280;41589;51.196;7.074;2022-07-23T23:56:56;99400.84;;;21.14;55.22
